createdAt,value
2023-01-28T00:04:07.651Z,84.98
2023-01-28T00:09:10.699Z,85.24
2023-01-28T00:14:14.094Z,85.29
2023-01-28T00:19:16.675Z,85.18
2023-01-28T00:24:18.935Z,84.75
2023-01-28T00:29:21.161Z,84.66
2023-01-28T00:34:23.622Z,84.95
2023-01-28T00:39:27.017Z,85.36
2023-01-28T00:44:29.377Z,85.34
2023-01-28T00:49:31.288Z,85.30
2023-01-28T00:54:34.225Z,85.20
2023-01-28T00:59:37.136Z,85.44
2023-01-28T01:04:40.993Z,85.40
2023-01-28T01:09:44.580Z,85.42
2023-01-28T01:14:46.595Z,85.83
2023-01-28T01:19:49.307Z,85.28
2023-01-28T01:24:52.405Z,85.62
2023-01-28T01:29:56.188Z,85.44
2023-01-28T01:34:59.129Z,85.42
2023-01-28T01:40:05.227Z,85.43
2023-01-28T01:45:18.157Z,85.21
2023-01-28T01:50:36.535Z,85.33
2023-01-28T01:55:39.700Z,85.36
2023-01-28T02:00:42.972Z,85.58
2023-01-28T02:05:45.580Z,85.74
2023-01-28T02:10:56.773Z,85.60
2023-01-28T02:16:00.521Z,85.66
2023-01-28T02:21:21.589Z,85.74
2023-01-28T02:26:44.527Z,85.81
2023-01-28T02:32:12.681Z,85.77
2023-01-28T02:37:54.729Z,85.78
2023-01-28T02:42:58.821Z,86.10
2023-01-28T02:48:01.817Z,86.01
2023-01-28T02:53:47.300Z,86.23
2023-01-28T02:58:55.865Z,86.26
2023-01-28T03:04:01.415Z,86.71
2023-01-28T03:09:23.378Z,86.34
2023-01-28T03:14:46.777Z,86.62
2023-01-28T03:20:08.747Z,86.74
2023-01-28T03:25:33.087Z,86.59
2023-01-28T03:31:14.811Z,86.79
2023-01-28T03:36:35.618Z,86.40
2023-01-28T03:41:37.810Z,86.98
2023-01-28T03:46:40.094Z,86.95
2023-01-28T03:51:42.641Z,86.97
2023-01-28T03:56:45.566Z,86.82
2023-01-28T04:01:50.345Z,86.90
2023-01-28T04:06:54.924Z,87.37
2023-01-28T04:11:58.993Z,87.29
2023-01-28T04:17:02.923Z,87.10
2023-01-28T04:22:07.485Z,87.37
2023-01-28T04:27:10.653Z,87.39
2023-01-28T04:32:14.582Z,87.38
2023-01-28T04:37:18.947Z,87.29
2023-01-28T04:42:21.869Z,87.75
2023-01-28T04:47:25.065Z,87.60
2023-01-28T04:52:29.962Z,87.67
2023-01-28T04:57:34.332Z,87.65
2023-01-28T05:02:38.829Z,87.79
2023-01-28T05:07:42.783Z,87.61
2023-01-28T05:12:48.342Z,87.87
2023-01-28T05:17:51.289Z,88.02
2023-01-28T05:22:55.699Z,87.61
2023-01-28T05:28:00.371Z,87.83
2023-01-28T05:33:03.933Z,88.00
2023-01-28T05:38:08.651Z,87.99
2023-01-28T05:43:12.415Z,88.28
2023-01-28T05:48:17.302Z,88.25
2023-01-28T05:53:20.665Z,88.10
2023-01-28T05:58:23.867Z,88.28
2023-01-28T06:03:26.548Z,88.27
2023-01-28T06:08:29.675Z,88.40
2023-01-28T06:13:33.581Z,88.35
2023-01-28T06:18:36.201Z,88.43
2023-01-28T06:23:39.252Z,88.52
2023-01-28T06:28:42.395Z,88.54
2023-01-28T06:33:45.320Z,88.65
2023-01-28T06:38:48.483Z,88.69
2023-01-28T06:43:52.072Z,88.42
2023-01-28T06:48:54.399Z,88.69
2023-01-28T06:53:57.740Z,88.61
2023-01-28T06:59:02.328Z,88.58
2023-01-28T07:04:05.994Z,88.62
2023-01-28T07:09:07.876Z,88.65
2023-01-28T07:14:12.222Z,88.88
2023-01-28T07:19:14.702Z,88.75
2023-01-28T07:24:18.473Z,88.76
2023-01-28T07:29:20.946Z,88.55
2023-01-28T07:34:25.100Z,88.79
2023-01-28T07:39:28.691Z,88.96
2023-01-28T07:44:31.831Z,88.64
2023-01-28T07:49:36.240Z,88.94
2023-01-28T07:54:41.461Z,88.65
2023-01-28T07:59:45.981Z,88.70
2023-01-28T08:04:48.973Z,88.63
2023-01-28T08:09:53.076Z,88.84
2023-01-28T08:14:56.818Z,89.09
2023-01-28T08:20:01.352Z,88.80
2023-01-28T08:25:06.459Z,89.06
2023-01-28T08:30:12.240Z,88.79
2023-01-28T08:35:15.621Z,88.64
2023-01-28T08:40:18.307Z,88.66
2023-01-28T08:45:27.695Z,88.84
2023-01-28T08:50:36.469Z,88.41
2023-01-28T08:55:40.115Z,88.66
2023-01-28T09:00:44.111Z,88.36
2023-01-28T09:05:46.789Z,88.60
2023-01-28T09:10:54.831Z,88.67
2023-01-28T09:15:57.564Z,88.34
2023-01-28T09:21:00.821Z,87.94
2023-01-28T09:26:06.148Z,87.95
2023-01-28T09:31:12.845Z,88.35
2023-01-28T09:36:17.282Z,88.40
2023-01-28T09:41:50.483Z,88.20
2023-01-28T09:46:52.533Z,88.59
2023-01-28T09:51:55.999Z,88.31
2023-01-28T09:57:12.163Z,88.31
2023-01-28T10:02:29.190Z,88.06
2023-01-28T10:07:55.966Z,88.17
2023-01-28T10:13:31.702Z,88.07
2023-01-28T10:19:17.554Z,88.16
2023-01-28T10:24:40.414Z,88.20
2023-01-28T10:29:46.279Z,88.29
2023-01-28T10:34:51.896Z,87.92
2023-01-28T10:39:58.956Z,87.89
2023-01-28T10:45:05.532Z,87.79
2023-01-28T10:50:19.665Z,87.47
2023-01-28T10:55:26.849Z,88.02
2023-01-28T11:00:37.253Z,87.60
2023-01-28T11:05:51.416Z,87.78
2023-01-28T11:10:58.777Z,87.51
2023-01-28T11:16:06.721Z,87.26
2023-01-28T11:21:29.898Z,87.50
2023-01-28T11:26:37.199Z,87.20
2023-01-28T11:31:43.895Z,87.27
2023-01-28T11:37:08.447Z,86.93
2023-01-28T11:42:18.731Z,87.19
2023-01-28T11:47:41.380Z,86.99
2023-01-28T11:53:07.363Z,86.96
2023-01-28T11:58:17.689Z,86.87
2023-01-28T12:03:41.234Z,86.81
2023-01-28T12:08:54.125Z,86.72
2023-01-28T12:14:11.765Z,86.60
2023-01-28T12:19:34.486Z,86.67
2023-01-28T12:24:53.280Z,86.60
2023-01-28T12:30:19.708Z,86.67
2023-01-28T12:35:51.026Z,86.64
2023-01-28T12:41:08.632Z,86.68
2023-01-28T12:46:18.035Z,86.52
2023-01-28T12:51:32.060Z,86.29
2023-01-28T12:56:41.363Z,86.00
2023-01-28T13:01:56.109Z,85.90
2023-01-28T13:07:15.307Z,85.96
2023-01-28T13:12:24.069Z,85.75
2023-01-28T13:17:31.737Z,85.92
2023-01-28T13:22:38.888Z,85.31
2023-01-28T13:27:41.793Z,85.52
2023-01-28T13:32:57.548Z,85.86
2023-01-28T13:38:25.724Z,85.39
2023-01-28T13:43:39.503Z,85.72
2023-01-28T13:48:51.371Z,85.46
2023-01-28T13:54:18.057Z,85.47
2023-01-28T13:59:54.019Z,85.44
2023-01-28T14:05:16.921Z,85.53
2023-01-28T14:10:45.062Z,85.67
2023-01-28T14:16:06.974Z,85.89
2023-01-28T14:21:21.289Z,85.45
2023-01-28T14:26:47.190Z,85.31
2023-01-28T14:31:53.779Z,85.35
2023-01-28T14:37:01.429Z,85.72
2023-01-28T14:42:14.204Z,85.58
2023-01-28T14:47:40.877Z,85.53
2023-01-28T14:52:58.599Z,85.43
2023-01-28T14:58:13.374Z,85.47
2023-01-28T15:03:26.888Z,84.71
2023-01-28T15:08:34.747Z,85.21
2023-01-28T15:14:00.451Z,84.97
2023-01-28T15:19:03.107Z,84.93
2023-01-28T15:24:06.239Z,84.64
2023-01-28T15:29:24.682Z,85.16
2023-01-28T15:34:31.532Z,85.29
2023-01-28T15:39:37.213Z,85.30
2023-01-28T15:44:48.716Z,85.32
2023-01-28T15:50:02.037Z,85.03
2023-01-28T15:55:06.612Z,85.13
2023-01-28T16:00:20.460Z,84.70
2023-01-28T16:05:39.289Z,84.74
2023-01-28T16:10:41.952Z,84.95
2023-01-28T16:15:55.469Z,84.68
2023-01-28T16:21:00.416Z,85.08
2023-01-28T16:26:24.083Z,84.43
2023-01-28T16:31:27.116Z,84.51
2023-01-28T16:36:30.327Z,84.24
2023-01-28T16:41:39.943Z,84.43
2023-01-28T16:46:43.129Z,84.17
2023-01-28T16:51:46.967Z,84.19
2023-01-28T16:56:51.559Z,84.06
2023-01-28T17:01:59.668Z,83.98
2023-01-28T17:07:02.575Z,83.84
2023-01-28T17:12:08.356Z,83.77
2023-01-28T17:17:18.722Z,83.97
2023-01-28T17:22:21.400Z,83.88
2023-01-28T17:27:24.379Z,83.99
2023-01-28T17:32:26.896Z,84.17
2023-01-28T17:37:29.556Z,83.83
2023-01-28T17:42:34.715Z,83.67
2023-01-28T17:47:37.162Z,83.38
2023-01-28T17:52:41.433Z,83.75
2023-01-28T17:57:44.473Z,83.95
2023-01-28T18:02:50.876Z,83.92
2023-01-28T18:07:54.360Z,83.48
2023-01-28T18:12:58.442Z,83.33
2023-01-28T18:18:01.522Z,83.58
2023-01-28T18:23:04.169Z,83.63
2023-01-28T18:28:08.847Z,84.01
2023-01-28T18:33:11.544Z,83.68
2023-01-28T18:38:15.493Z,83.69
2023-01-28T18:43:18.179Z,83.41
2023-01-28T18:48:20.531Z,83.36
2023-01-28T18:53:25.226Z,83.34
2023-01-28T18:58:27.897Z,82.99
2023-01-28T19:03:31.037Z,82.67
2023-01-28T19:08:37.081Z,82.61
2023-01-28T19:13:43.582Z,82.49
2023-01-28T19:19:02.874Z,82.22
2023-01-28T19:24:09.732Z,82.25
2023-01-28T19:29:16.484Z,82.51
2023-01-28T19:34:20.887Z,82.24
2023-01-28T19:39:27.934Z,81.62
2023-01-28T19:44:33.989Z,81.56
2023-01-28T19:49:40.222Z,81.03
2023-01-28T19:54:43.520Z,81.09
2023-01-28T19:59:46.403Z,80.92
2023-01-28T20:05:00.311Z,80.72
2023-01-28T20:10:08.830Z,80.31
2023-01-28T20:15:15.145Z,80.39
2023-01-28T20:20:19.664Z,80.09
2023-01-28T20:25:23.276Z,79.70
2023-01-28T20:30:26.511Z,79.58
2023-01-28T20:35:29.116Z,79.44
2023-01-28T20:40:32.039Z,79.38
2023-01-28T20:45:36.015Z,79.14
2023-01-28T20:50:39.712Z,78.71
2023-01-28T20:55:44.675Z,78.37
2023-01-28T21:00:51.661Z,78.40
2023-01-28T21:05:55.532Z,78.23
2023-01-28T21:11:03.208Z,78.17
2023-01-28T21:16:07.258Z,78.03
2023-01-28T21:21:25.416Z,77.88
2023-01-28T21:26:28.519Z,77.60
2023-01-28T21:31:32.108Z,77.69
2023-01-28T21:36:36.954Z,77.59
2023-01-28T21:41:40.680Z,77.45
2023-01-28T21:46:43.053Z,77.57
2023-01-28T21:51:47.310Z,77.69
2023-01-28T21:56:51.709Z,77.64
2023-01-28T22:02:03.078Z,77.56
2023-01-28T22:07:11.667Z,77.39
2023-01-28T22:12:22.345Z,77.50
2023-01-28T22:17:26.200Z,77.27
2023-01-28T22:22:30.937Z,77.32
2023-01-28T22:27:36.114Z,77.26
2023-01-28T22:32:39.589Z,77.10
2023-01-28T22:37:43.228Z,76.97
2023-01-28T22:42:47.354Z,76.78
2023-01-28T22:47:51.096Z,76.92
2023-01-28T22:52:57.215Z,76.48
2023-01-28T22:58:00.437Z,76.61
2023-01-28T23:03:03.030Z,76.54
2023-01-28T23:08:12.193Z,76.61
2023-01-28T23:13:18.031Z,76.37
2023-01-28T23:18:48.481Z,76.12
2023-01-28T23:24:10.348Z,76.29
2023-01-28T23:29:12.613Z,76.27
2023-01-28T23:34:17.205Z,76.38
2023-01-28T23:39:20.712Z,76.19
2023-01-28T23:44:28.085Z,76.38
2023-01-28T23:49:31.523Z,76.46
2023-01-28T23:54:36.138Z,76.61
2023-01-28T23:59:40.493Z,76.36
